createdAt,value
2019-03-29T00:00:32.659Z,99.99
2019-03-29T00:01:32.711Z,99.99
2019-03-29T00:02:32.763Z,99.99
2019-03-29T00:03:32.816Z,99.99
2019-03-29T00:04:32.871Z,99.99
2019-03-29T00:05:32.923Z,99.99
2019-03-29T00:06:32.974Z,99.99
2019-03-29T00:07:39.421Z,99.99
2019-03-29T00:08:33.079Z,99.99
2019-03-29T00:09:33.130Z,99.99
2019-03-29T00:10:33.183Z,99.99
2019-03-29T00:11:33.237Z,99.99
2019-03-29T00:12:33.289Z,99.99
2019-03-29T00:13:33.341Z,99.99
2019-03-29T00:14:33.394Z,99.99
2019-03-29T00:15:34.098Z,99.99
2019-03-29T00:16:33.498Z,99.99
2019-03-29T00:17:33.551Z,99.99
2019-03-29T00:18:33.603Z,99.99
2019-03-29T00:19:33.656Z,99.99
2019-03-29T00:20:33.707Z,99.99
2019-03-29T00:21:33.761Z,99.99
2019-03-29T00:22:33.815Z,99.99
2019-03-29T00:23:33.864Z,99.99
2019-03-29T00:24:33.919Z,99.99
2019-03-29T00:25:33.969Z,99.99
2019-03-29T00:26:34.021Z,99.99
2019-03-29T00:27:34.076Z,99.99
2019-03-29T00:28:34.128Z,99.99
2019-03-29T00:29:34.179Z,99.99
2019-03-29T00:30:34.231Z,99.99
2019-03-29T00:31:34.282Z,99.99
2019-03-29T00:32:34.340Z,99.99
2019-03-29T00:33:34.386Z,99.99
2019-03-29T00:34:34.439Z,99.99
2019-03-29T00:35:34.493Z,99.99
2019-03-29T00:36:34.559Z,99.99
2019-03-29T00:37:34.595Z,99.99
2019-03-29T00:38:34.649Z,99.99
2019-03-29T00:39:34.701Z,99.99
2019-03-29T00:40:34.757Z,99.99
2019-03-29T00:41:34.803Z,99.99
2019-03-29T00:42:34.857Z,99.99
2019-03-29T00:43:34.990Z,99.99
2019-03-29T00:44:34.964Z,99.99
2019-03-29T00:45:35.012Z,99.99
2019-03-29T00:46:35.069Z,99.99
2019-03-29T00:47:35.118Z,99.99
2019-03-29T00:48:35.743Z,99.99
2019-03-29T00:49:35.223Z,99.99
2019-03-29T00:50:35.274Z,99.99
2019-03-29T00:51:35.326Z,99.99
2019-03-29T00:52:35.379Z,99.99
2019-03-29T00:53:35.952Z,99.99
2019-03-29T00:54:35.484Z,99.99
2019-03-29T00:55:35.535Z,99.99
2019-03-29T00:56:35.587Z,99.99
2019-03-29T00:57:35.638Z,99.99
2019-03-29T00:58:35.691Z,99.99
2019-03-29T00:59:35.748Z,99.99
2019-03-29T01:00:35.795Z,99.99
2019-03-29T01:01:35.846Z,99.99
2019-03-29T01:02:35.899Z,99.99
2019-03-29T01:03:36.965Z,99.99
2019-03-29T01:04:36.003Z,99.99
2019-03-29T01:05:36.146Z,99.99
2019-03-29T01:06:36.107Z,99.99
2019-03-29T01:07:36.159Z,99.99
2019-03-29T01:08:36.248Z,99.99
2019-03-29T01:09:36.264Z,99.99
2019-03-29T01:10:36.316Z,99.99
2019-03-29T01:11:36.369Z,99.99
2019-03-29T01:12:36.422Z,99.99
2019-03-29T01:13:36.471Z,99.99
2019-03-29T01:14:36.524Z,99.99
2019-03-29T01:15:36.578Z,99.99
2019-03-29T01:16:36.629Z,99.99
2019-03-29T01:17:36.682Z,99.99
2019-03-29T01:18:37.946Z,99.99
2019-03-29T01:19:36.786Z,99.99
2019-03-29T01:20:36.837Z,99.99
2019-03-29T01:21:36.888Z,99.99
2019-03-29T01:22:36.940Z,99.99
2019-03-29T01:23:36.992Z,99.99
2019-03-29T01:24:37.044Z,99.99
2019-03-29T01:25:37.098Z,99.99
2019-03-29T01:26:37.149Z,99.99
2019-03-29T01:27:37.200Z,99.99
2019-03-29T01:28:37.947Z,99.99
2019-03-29T01:29:37.303Z,99.99
2019-03-29T01:30:37.356Z,99.99
2019-03-29T01:31:37.408Z,99.99
2019-03-29T01:32:37.462Z,99.99
2019-03-29T01:33:37.511Z,99.99
2019-03-29T01:34:37.637Z,99.99
2019-03-29T01:35:37.615Z,99.99
2019-03-29T01:36:37.681Z,99.99
2019-03-29T01:37:37.718Z,99.99
2019-03-29T01:38:37.769Z,99.99
2019-03-29T01:39:37.822Z,99.99
2019-03-29T01:40:37.873Z,99.99
2019-03-29T01:41:37.925Z,99.99
2019-03-29T01:42:37.977Z,99.99
2019-03-29T01:43:38.030Z,99.99
2019-03-29T01:44:38.081Z,99.99
2019-03-29T01:45:38.185Z,99.99
2019-03-29T01:46:38.347Z,99.99
2019-03-29T01:47:38.238Z,99.99
2019-03-29T01:48:38.287Z,99.99
2019-03-29T01:49:38.343Z,99.99
2019-03-29T01:50:38.390Z,99.99
2019-03-29T01:51:38.442Z,99.99
2019-03-29T01:52:38.496Z,99.99
2019-03-29T01:53:38.545Z,99.99
2019-03-29T01:54:38.597Z,99.99
2019-03-29T01:55:38.650Z,99.99
2019-03-29T01:56:38.701Z,99.99
2019-03-29T01:57:38.752Z,99.99
2019-03-29T01:58:38.805Z,99.99
2019-03-29T02:00:21.289Z,99.99
2019-03-29T02:01:21.398Z,99.99
2019-03-29T02:02:21.391Z,99.99
2019-03-29T02:03:21.446Z,99.99
2019-03-29T02:04:21.498Z,99.99
2019-03-29T02:05:21.547Z,99.99
2019-03-29T02:06:21.598Z,99.99
2019-03-29T02:07:21.651Z,99.99
2019-03-29T02:08:34.839Z,99.99
2019-03-29T02:09:21.755Z,99.99
2019-03-29T02:10:22.193Z,99.99
2019-03-29T02:11:21.859Z,99.99
2019-03-29T02:12:21.910Z,99.99
2019-03-29T02:13:21.961Z,99.99
2019-03-29T02:14:22.013Z,99.99
2019-03-29T02:15:22.067Z,99.99
2019-03-29T02:16:22.117Z,99.99
2019-03-29T02:17:22.239Z,99.99
2019-03-29T02:18:22.222Z,99.99
2019-03-29T02:19:22.273Z,99.99
2019-03-29T02:20:22.323Z,99.99
2019-03-29T02:21:22.375Z,99.99
2019-03-29T02:22:22.429Z,99.99
2019-03-29T02:23:22.481Z,99.99
2019-03-29T02:24:25.154Z,99.99
2019-03-29T02:25:22.599Z,99.99
2019-03-29T02:26:22.634Z,99.99
2019-03-29T02:27:25.311Z,99.99
2019-03-29T02:28:22.738Z,99.99
2019-03-29T02:29:22.794Z,99.99
2019-03-29T02:30:22.846Z,99.99
2019-03-29T02:31:25.790Z,99.99
2019-03-29T02:32:24.936Z,99.99
2019-03-29T02:33:22.996Z,99.99
2019-03-29T02:34:23.050Z,99.99
2019-03-29T02:35:23.099Z,99.99
2019-03-29T02:36:23.156Z,99.99
2019-03-29T02:37:23.203Z,99.99
2019-03-29T02:38:23.733Z,99.99
2019-03-29T02:39:23.306Z,99.99
2019-03-29T02:40:23.361Z,99.99
2019-03-29T02:41:23.411Z,99.99
2019-03-29T02:42:23.461Z,99.99
2019-03-29T02:43:23.518Z,99.99
2019-03-29T02:44:23.563Z,99.99
2019-03-29T02:45:23.618Z,99.99
2019-03-29T02:46:25.675Z,99.99
2019-03-29T02:47:23.728Z,99.99
2019-03-29T02:48:23.774Z,99.99
2019-03-29T02:49:23.821Z,99.99
2019-03-29T02:50:23.878Z,99.99
2019-03-29T02:51:23.926Z,99.99
2019-03-29T02:52:23.975Z,99.99
2019-03-29T02:53:24.027Z,99.99
2019-03-29T02:54:24.077Z,99.99
2019-03-29T02:55:24.152Z,99.99
2019-03-29T02:56:24.191Z,99.99
2019-03-29T02:57:24.233Z,99.99
2019-03-29T02:58:24.286Z,99.99
2019-03-29T02:59:24.340Z,99.99
2019-03-29T03:00:24.393Z,99.99
2019-03-29T03:01:24.437Z,99.99
2019-03-29T03:02:26.607Z,99.99
2019-03-29T03:03:24.541Z,99.99
2019-03-29T03:04:24.594Z,99.99
2019-03-29T03:05:24.644Z,99.99
2019-03-29T03:06:24.703Z,99.99
2019-03-29T03:07:24.755Z,99.99
2019-03-29T03:08:24.806Z,99.99
2019-03-29T03:09:24.854Z,99.99
2019-03-29T03:10:24.902Z,99.99
2019-03-29T03:11:24.953Z,99.99
2019-03-29T03:12:25.001Z,99.99
2019-03-29T03:13:25.055Z,99.99
2019-03-29T03:14:25.106Z,99.99
2019-03-29T03:15:25.158Z,99.99
2019-03-29T03:16:25.217Z,99.99
2019-03-29T03:17:25.261Z,99.99
2019-03-29T03:18:25.313Z,99.99
2019-03-29T03:19:25.363Z,99.99
2019-03-29T03:20:25.414Z,99.99
2019-03-29T03:21:25.464Z,99.99
2019-03-29T03:22:25.516Z,99.99
2019-03-29T03:23:25.569Z,99.99
2019-03-29T03:24:25.619Z,99.99
2019-03-29T03:25:25.670Z,99.99
2019-03-29T03:26:25.732Z,99.99
2019-03-29T03:27:25.771Z,99.99
2019-03-29T03:28:25.824Z,99.99
2019-03-29T03:29:25.897Z,99.99
2019-03-29T03:30:25.926Z,99.99
2019-03-29T03:31:25.986Z,99.99
2019-03-29T03:32:26.029Z,99.99
2019-03-29T03:33:26.101Z,99.99
2019-03-29T03:34:26.157Z,99.99
2019-03-29T03:35:26.208Z,99.99
2019-03-29T03:36:26.232Z,99.99
2019-03-29T03:37:26.284Z,99.99
2019-03-29T03:38:26.338Z,99.99
2019-03-29T03:39:32.057Z,99.99
2019-03-29T03:40:26.437Z,99.99
2019-03-29T03:41:26.489Z,99.99
2019-03-29T03:42:26.545Z,99.99
2019-03-29T03:43:26.592Z,99.99
2019-03-29T03:44:26.640Z,99.99
2019-03-29T03:45:26.693Z,99.99
2019-03-29T03:46:26.743Z,99.99
2019-03-29T03:47:26.798Z,99.99
2019-03-29T03:48:26.848Z,99.99
2019-03-29T03:49:26.900Z,99.99
2019-03-29T03:50:26.949Z,99.99
2019-03-29T03:51:27.001Z,99.99
2019-03-29T03:52:27.051Z,99.99
2019-03-29T03:53:27.210Z,99.99
2019-03-29T03:54:27.155Z,99.99
2019-03-29T03:55:27.206Z,99.99
2019-03-29T03:56:27.255Z,99.99
2019-03-29T03:57:27.307Z,99.99
2019-03-29T03:58:27.357Z,99.99
2019-03-29T03:59:27.413Z,99.99
2019-03-29T04:00:27.459Z,99.99
2019-03-29T04:01:27.512Z,99.99
2019-03-29T04:02:27.565Z,99.99
2019-03-29T04:03:27.616Z,99.99
2019-03-29T04:04:27.666Z,99.99
2019-03-29T04:05:27.714Z,99.99
2019-03-29T04:06:27.769Z,99.99
2019-03-29T04:07:27.818Z,99.99
2019-03-29T04:08:27.876Z,99.99
2019-03-29T04:09:27.936Z,99.99
2019-03-29T04:10:27.971Z,99.99
2019-03-29T04:11:28.023Z,99.99
2019-03-29T04:12:28.078Z,99.99
2019-03-29T04:13:28.942Z,99.99
2019-03-29T04:14:28.177Z,99.99
2019-03-29T04:15:28.227Z,99.99
2019-03-29T04:16:28.276Z,99.99
2019-03-29T04:17:28.334Z,99.99
2019-03-29T04:18:28.379Z,99.99
2019-03-29T04:19:28.429Z,99.99
2019-03-29T04:20:28.481Z,99.99
2019-03-29T04:21:28.533Z,99.99
2019-03-29T04:22:28.584Z,99.99
2019-03-29T04:23:28.635Z,99.99
2019-03-29T04:24:28.685Z,99.99
2019-03-29T04:25:28.736Z,99.99
2019-03-29T04:26:28.787Z,99.99
2019-03-29T04:27:28.843Z,99.99
2019-03-29T04:28:28.892Z,99.99
2019-03-29T04:29:28.939Z,99.99
2019-03-29T04:30:28.999Z,99.99
2019-03-29T04:31:29.045Z,99.99
2019-03-29T04:32:29.094Z,99.99
2019-03-29T04:33:29.145Z,99.99
2019-03-29T04:34:29.197Z,99.99
2019-03-29T04:35:29.248Z,99.99
2019-03-29T04:36:29.296Z,99.99
2019-03-29T04:37:29.347Z,99.99
2019-03-29T04:38:29.399Z,99.99
2019-03-29T04:39:29.450Z,99.99
2019-03-29T04:40:29.504Z,99.99
2019-03-29T04:41:29.553Z,99.99
2019-03-29T04:42:29.603Z,99.99
2019-03-29T04:43:29.654Z,99.99
2019-03-29T04:44:29.704Z,99.99
2019-03-29T04:45:29.757Z,99.99
2019-03-29T04:46:29.807Z,99.99
2019-03-29T04:47:29.867Z,99.99
2019-03-29T04:48:29.911Z,99.99
2019-03-29T04:49:29.960Z,99.99
2019-03-29T04:50:30.080Z,99.99
2019-03-29T04:51:30.062Z,99.99
2019-03-29T04:52:30.115Z,99.99
2019-03-29T04:53:30.163Z,99.99
2019-03-29T04:54:30.215Z,99.99
2019-03-29T04:55:30.266Z,99.99
2019-03-29T04:56:30.316Z,99.99
2019-03-29T04:57:30.370Z,99.99
2019-03-29T04:58:30.419Z,99.99
2019-03-29T04:59:30.470Z,99.99
2019-03-29T05:00:30.520Z,99.99
2019-03-29T05:01:30.597Z,99.99
2019-03-29T05:02:30.624Z,99.99
2019-03-29T05:03:30.674Z,99.99
2019-03-29T05:04:30.725Z,99.99
2019-03-29T05:05:30.779Z,99.99
2019-03-29T05:06:30.826Z,99.99
2019-03-29T05:07:30.878Z,99.99
2019-03-29T05:08:30.927Z,99.99
2019-03-29T05:09:30.979Z,99.99
2019-03-29T05:10:31.032Z,99.99
2019-03-29T05:11:31.083Z,99.99
2019-03-29T05:12:31.131Z,99.99
2019-03-29T05:13:31.183Z,99.99
2019-03-29T05:14:31.235Z,99.99
2019-03-29T05:15:31.986Z,99.99
2019-03-29T05:16:31.339Z,99.99
2019-03-29T05:17:31.386Z,99.99
2019-03-29T05:18:31.438Z,99.99
2019-03-29T05:19:31.489Z,99.99
2019-03-29T05:20:31.539Z,99.99
2019-03-29T05:21:31.591Z,99.99
2019-03-29T05:22:31.642Z,99.99
2019-03-29T05:23:31.692Z,99.99
2019-03-29T05:24:31.743Z,99.99
2019-03-29T05:25:31.793Z,99.99
2019-03-29T05:26:31.846Z,99.99
2019-03-29T05:27:31.895Z,99.99
2019-03-29T05:28:31.947Z,99.99
2019-03-29T05:29:31.998Z,99.99
2019-03-29T05:30:32.049Z,99.99
2019-03-29T05:31:32.099Z,99.99
2019-03-29T05:32:32.151Z,99.99
2019-03-29T05:33:32.201Z,99.99
2019-03-29T05:34:32.252Z,99.99
2019-03-29T05:35:32.304Z,99.99
2019-03-29T05:36:32.354Z,99.99
2019-03-29T05:37:32.405Z,99.99
2019-03-29T05:38:32.457Z,99.99
2019-03-29T05:39:32.508Z,99.99
2019-03-29T05:40:35.110Z,99.99
2019-03-29T05:41:32.610Z,99.99
2019-03-29T05:42:32.661Z,99.99
2019-03-29T05:43:32.713Z,99.99
2019-03-29T05:44:32.762Z,99.99
2019-03-29T05:45:32.813Z,99.99
2019-03-29T05:46:32.872Z,99.99
2019-03-29T05:47:32.916Z,99.99
2019-03-29T05:48:32.969Z,99.99
2019-03-29T05:49:33.021Z,99.99
2019-03-29T05:50:33.069Z,99.99
2019-03-29T05:51:33.120Z,99.99
2019-03-29T05:52:33.170Z,99.99
2019-03-29T05:53:33.223Z,99.99
2019-03-29T05:54:33.277Z,99.99
2019-03-29T05:55:33.332Z,99.99
2019-03-29T05:56:33.377Z,99.99
2019-03-29T05:57:33.431Z,99.99
2019-03-29T05:58:33.479Z,99.99
2019-03-29T05:59:33.531Z,99.99
2019-03-29T06:00:33.580Z,99.99
2019-03-29T06:01:33.963Z,99.99
2019-03-29T06:02:33.687Z,99.99
2019-03-29T06:03:33.735Z,99.99
2019-03-29T06:04:33.785Z,99.99
2019-03-29T06:05:33.845Z,99.99
2019-03-29T06:06:33.889Z,99.99
2019-03-29T06:07:33.940Z,99.99
2019-03-29T06:08:33.991Z,99.99
2019-03-29T06:09:35.108Z,99.99
2019-03-29T06:10:47.919Z,99.99
2019-03-29T06:11:34.534Z,99.99
2019-03-29T06:12:34.195Z,99.99
2019-03-29T06:13:34.246Z,99.99
2019-03-29T06:14:34.310Z,99.99
2019-03-29T06:15:34.348Z,99.99
2019-03-29T06:16:39.118Z,99.99
2019-03-29T06:17:47.648Z,99.99
2019-03-29T06:18:34.506Z,99.99
2019-03-29T06:19:34.554Z,99.99
2019-03-29T06:20:34.935Z,99.99
2019-03-29T06:21:34.658Z,99.99
2019-03-29T06:22:34.709Z,99.99
2019-03-29T06:23:34.813Z,99.99
2019-03-29T06:24:34.811Z,99.99
2019-03-29T06:25:34.861Z,99.99
2019-03-29T06:26:34.914Z,99.99
2019-03-29T06:27:34.971Z,99.99
2019-03-29T06:28:35.015Z,99.99
2019-03-29T06:29:35.066Z,99.99
2019-03-29T06:30:35.119Z,99.99
2019-03-29T06:31:35.171Z,99.99
2019-03-29T06:32:35.232Z,99.99
2019-03-29T06:33:35.274Z,99.99
2019-03-29T06:34:35.326Z,99.99
2019-03-29T06:35:35.376Z,99.99
2019-03-29T06:36:35.427Z,99.99
2019-03-29T06:37:35.479Z,99.99
2019-03-29T06:38:35.531Z,99.99
2019-03-29T06:39:35.583Z,99.99
2019-03-29T06:40:35.636Z,99.99
2019-03-29T06:41:35.690Z,99.99
2019-03-29T06:42:35.740Z,99.99
2019-03-29T06:43:35.790Z,99.99
2019-03-29T06:44:35.840Z,99.99
2019-03-29T06:45:47.290Z,99.99
2019-03-29T06:46:35.943Z,99.99
2019-03-29T06:47:35.995Z,99.99
2019-03-29T06:48:36.047Z,99.99
2019-03-29T06:49:36.098Z,99.99
2019-03-29T06:50:36.230Z,99.99
2019-03-29T06:51:36.201Z,99.99
2019-03-29T06:52:36.254Z,99.99
2019-03-29T06:53:36.305Z,99.99
2019-03-29T06:54:36.356Z,99.99
2019-03-29T06:55:36.408Z,99.99
2019-03-29T06:56:36.458Z,99.99
2019-03-29T06:57:36.512Z,99.99
2019-03-29T06:58:36.564Z,99.99
2019-03-29T06:59:36.616Z,99.99
2019-03-29T07:00:36.666Z,99.99
2019-03-29T07:01:36.722Z,99.99
2019-03-29T07:02:36.773Z,99.99
2019-03-29T07:03:36.827Z,99.99
2019-03-29T07:04:36.875Z,99.99
2019-03-29T07:05:36.931Z,99.99
2019-03-29T07:06:36.980Z,99.99
2019-03-29T07:07:37.031Z,99.99
2019-03-29T07:08:37.083Z,99.99
2019-03-29T07:09:37.134Z,99.99
2019-03-29T07:10:37.186Z,99.99
2019-03-29T07:11:39.721Z,99.99
2019-03-29T07:12:37.290Z,99.99
2019-03-29T07:13:37.345Z,99.99
2019-03-29T07:14:37.399Z,99.99
2019-03-29T07:15:38.182Z,99.99
2019-03-29T07:16:37.956Z,99.99
2019-03-29T07:17:37.554Z,99.99
2019-03-29T07:18:38.539Z,99.99
2019-03-29T07:19:37.705Z,99.99
2019-03-29T07:20:37.707Z,99.99
2019-03-29T07:21:37.762Z,99.99
2019-03-29T07:22:37.816Z,99.99
2019-03-29T07:23:37.868Z,99.99
2019-03-29T07:24:37.915Z,99.99
2019-03-29T07:25:37.974Z,99.99
2019-03-29T07:26:38.025Z,99.99
2019-03-29T07:27:44.809Z,99.99
2019-03-29T07:28:38.124Z,99.99
2019-03-29T07:29:38.224Z,99.99
2019-03-29T07:30:38.229Z,99.99
2019-03-29T07:31:38.282Z,99.99
2019-03-29T07:32:38.333Z,99.99
2019-03-29T07:33:38.387Z,99.99
2019-03-29T07:34:38.441Z,99.99
2019-03-29T07:35:38.493Z,99.99
2019-03-29T07:36:38.545Z,99.99
2019-03-29T07:37:38.595Z,99.99
2019-03-29T07:38:38.663Z,99.99
2019-03-29T07:39:38.702Z,99.99
2019-03-29T07:40:38.754Z,99.99
2019-03-29T07:41:38.817Z,99.99
2019-03-29T07:42:38.858Z,99.99
2019-03-29T07:43:38.915Z,99.99
2019-03-29T07:44:38.964Z,99.99
2019-03-29T07:45:39.016Z,99.99
2019-03-29T07:46:39.394Z,99.99
2019-03-29T07:47:39.128Z,99.99
2019-03-29T07:48:40.516Z,99.99
2019-03-29T07:49:39.229Z,99.99
2019-03-29T07:50:39.282Z,99.99
2019-03-29T07:51:39.340Z,99.99
2019-03-29T07:52:39.389Z,99.99
2019-03-29T07:53:39.441Z,99.99
2019-03-29T07:54:40.239Z,99.99
2019-03-29T07:55:39.548Z,99.99
2019-03-29T07:56:39.601Z,99.99
2019-03-29T07:57:39.654Z,99.99
2019-03-29T07:58:39.706Z,99.99
2019-03-29T07:59:39.760Z,99.99
2019-03-29T08:00:39.813Z,99.99
2019-03-29T08:01:39.879Z,99.99
2019-03-29T08:02:40.563Z,99.99
2019-03-29T08:03:39.974Z,99.99
2019-03-29T08:04:40.026Z,99.99
2019-03-29T08:05:40.392Z,99.99
2019-03-29T08:06:40.134Z,99.99
2019-03-29T08:07:40.188Z,99.99
2019-03-29T08:08:40.243Z,99.99
2019-03-29T08:09:40.295Z,99.99
2019-03-29T08:10:40.349Z,99.99
2019-03-29T08:11:46.522Z,99.99
2019-03-29T08:12:40.797Z,99.99
2019-03-29T08:13:40.541Z,99.99
2019-03-29T08:14:40.564Z,99.99
2019-03-29T08:15:40.619Z,99.99
2019-03-29T08:16:40.670Z,99.99
2019-03-29T08:17:40.726Z,99.99
2019-03-29T08:18:41.308Z,99.99
2019-03-29T08:19:40.835Z,99.99
2019-03-29T08:20:44.199Z,99.99
2019-03-29T08:21:40.941Z,99.99
2019-03-29T08:22:40.996Z,99.99
2019-03-29T08:23:41.050Z,99.99
2019-03-29T08:24:41.102Z,99.99
2019-03-29T08:25:41.157Z,99.99
2019-03-29T08:26:41.212Z,99.99
2019-03-29T08:27:41.282Z,99.99
2019-03-29T08:28:41.322Z,99.99
2019-03-29T08:29:41.374Z,99.99
2019-03-29T08:30:41.429Z,99.99
2019-03-29T08:31:41.559Z,99.99
2019-03-29T08:32:41.537Z,99.99
2019-03-29T08:33:41.598Z,99.99
2019-03-29T08:34:41.647Z,99.99
2019-03-29T08:35:41.701Z,99.99
2019-03-29T08:36:41.905Z,99.99
2019-03-29T08:37:41.810Z,99.99
2019-03-29T08:38:41.865Z,99.99
2019-03-29T08:39:41.918Z,99.99
2019-03-29T08:40:45.087Z,99.99
2019-03-29T08:41:42.030Z,99.99
2019-03-29T08:42:42.083Z,99.99
2019-03-29T08:43:42.138Z,99.99
2019-03-29T08:44:42.193Z,99.99
2019-03-29T08:45:42.246Z,99.99
2019-03-29T08:46:42.302Z,99.99
2019-03-29T08:47:42.358Z,99.99
2019-03-29T08:48:42.413Z,99.99
2019-03-29T08:49:42.465Z,99.99
2019-03-29T08:50:42.521Z,99.99
2019-03-29T08:51:42.576Z,99.99
2019-03-29T08:52:43.338Z,99.99
2019-03-29T08:53:42.688Z,99.99
2019-03-29T08:54:42.740Z,99.99
2019-03-29T08:55:46.005Z,99.99
2019-03-29T08:56:42.851Z,99.99
2019-03-29T08:57:42.905Z,99.99
2019-03-29T08:58:46.237Z,99.99
2019-03-29T08:59:43.039Z,99.99
2019-03-29T09:00:43.072Z,99.99
2019-03-29T09:01:43.128Z,99.99
2019-03-29T09:02:43.216Z,99.99
2019-03-29T09:03:43.290Z,99.99
2019-03-29T09:04:43.298Z,99.99
2019-03-29T09:05:43.350Z,99.80
2019-03-29T09:06:53.448Z,99.51
2019-03-29T09:07:45.084Z,99.51
2019-03-29T09:08:43.516Z,99.13
2019-03-29T09:09:46.277Z,99.22
2019-03-29T09:10:43.627Z,98.75
2019-03-29T09:11:43.683Z,98.56
2019-03-29T09:12:43.739Z,98.70
2019-03-29T09:13:43.798Z,98.51
2019-03-29T09:14:43.851Z,98.22
2019-03-29T09:15:43.909Z,98.03
2019-03-29T09:16:43.961Z,97.75
2019-03-29T09:17:44.020Z,97.75
2019-03-29T09:18:44.074Z,98.13
2019-03-29T09:19:44.130Z,98.51
2019-03-29T09:20:44.185Z,98.51
2019-03-29T09:21:44.240Z,98.32
2019-03-29T09:22:44.303Z,98.42
2019-03-29T09:23:44.355Z,98.08
2019-03-29T09:24:44.412Z,97.89
2019-03-29T09:25:44.467Z,97.89
2019-03-29T09:26:44.526Z,97.32
2019-03-29T09:27:44.580Z,97.32
2019-03-29T09:28:44.636Z,97.13
2019-03-29T09:29:44.693Z,96.70
2019-03-29T09:30:44.751Z,97.08
2019-03-29T09:31:44.805Z,96.61
2019-03-29T09:32:44.862Z,96.37
2019-03-29T09:33:44.916Z,95.70
2019-03-29T09:34:44.973Z,95.41
2019-03-29T09:35:45.032Z,95.41
2019-03-29T09:36:45.088Z,95.12
2019-03-29T09:37:45.143Z,94.36
2019-03-29T09:38:45.200Z,94.51
2019-03-29T09:39:45.255Z,94.60
2019-03-29T09:40:56.213Z,94.12
2019-03-29T09:41:45.370Z,93.55
2019-03-29T09:42:45.426Z,93.55
2019-03-29T09:43:45.483Z,92.88
2019-03-29T09:44:46.112Z,93.36
2019-03-29T09:45:45.596Z,92.97
2019-03-29T09:46:46.271Z,93.84
2019-03-29T09:47:45.710Z,93.65
2019-03-29T09:48:45.767Z,92.88
2019-03-29T09:49:45.824Z,92.79
2019-03-29T09:50:50.152Z,92.93
2019-03-29T09:51:45.940Z,92.74
2019-03-29T09:52:45.995Z,92.16
2019-03-29T09:53:46.052Z,92.07
2019-03-29T09:54:48.741Z,90.92
2019-03-29T09:55:46.167Z,90.82
2019-03-29T09:56:48.347Z,90.96
2019-03-29T09:57:46.281Z,90.73
2019-03-29T09:58:46.343Z,90.77
2019-03-29T09:59:46.398Z,90.87
2019-03-29T10:00:46.762Z,90.20
2019-03-29T10:01:46.855Z,89.91
2019-03-29T10:03:34.020Z,88.86
2019-03-29T10:04:34.077Z,88.95
2019-03-29T10:05:34.134Z,88.95
2019-03-29T10:06:34.194Z,88.76
2019-03-29T10:07:34.250Z,89.00
2019-03-29T10:08:34.306Z,88.52
2019-03-29T10:09:34.362Z,87.56
2019-03-29T10:10:34.846Z,88.09
2019-03-29T10:11:34.480Z,88.81
2019-03-29T10:12:43.262Z,88.43
2019-03-29T10:13:34.594Z,88.23
2019-03-29T10:14:34.654Z,88.52
2019-03-29T10:15:34.712Z,87.66
2019-03-29T10:16:34.807Z,87.18
2019-03-29T10:17:34.827Z,86.90
2019-03-29T10:18:34.884Z,86.84
2019-03-29T10:19:34.941Z,86.08
2019-03-29T10:20:35.000Z,85.94
2019-03-29T10:21:35.058Z,85.94
2019-03-29T10:22:35.115Z,85.60
2019-03-29T10:23:35.174Z,85.69
2019-03-29T10:24:35.234Z,85.02
2019-03-29T10:25:35.289Z,84.45
2019-03-29T10:26:35.348Z,84.16
2019-03-29T10:27:35.406Z,83.53
2019-03-29T10:28:35.468Z,83.63
2019-03-29T10:29:35.524Z,82.96
2019-03-29T10:30:35.581Z,83.15
2019-03-29T10:31:35.640Z,83.01
2019-03-29T10:32:35.701Z,82.96
2019-03-29T10:34:28.222Z,81.62
2019-03-29T10:35:28.280Z,81.13
2019-03-29T10:36:28.343Z,81.13
2019-03-29T10:37:28.404Z,80.66
2019-03-29T10:38:28.456Z,81.13
2019-03-29T10:39:28.518Z,81.13
2019-03-29T10:40:28.572Z,81.20
2019-03-29T10:41:28.631Z,81.13
2019-03-29T10:42:28.689Z,80.66
2019-03-29T10:43:28.750Z,80.27
2019-03-29T10:44:28.880Z,80.27
2019-03-29T10:45:28.867Z,79.60
2019-03-29T10:46:28.927Z,79.13
2019-03-29T10:47:42.473Z,79.51
2019-03-29T10:48:29.043Z,79.41
2019-03-29T10:49:29.102Z,79.22
2019-03-29T10:50:29.161Z,78.74
2019-03-29T10:51:29.221Z,78.45
2019-03-29T10:52:29.351Z,78.30
2019-03-29T10:53:29.340Z,77.92
2019-03-29T10:54:29.404Z,77.92
2019-03-29T10:55:29.767Z,77.63
2019-03-29T10:56:34.455Z,76.32
2019-03-29T10:57:29.577Z,75.50
2019-03-29T10:58:29.639Z,75.65
2019-03-29T10:59:29.697Z,75.27
2019-03-29T11:00:29.757Z,75.60
2019-03-29T11:01:29.819Z,74.54
2019-03-29T11:02:30.082Z,73.72
2019-03-29T11:03:29.940Z,72.95
2019-03-29T11:04:31.906Z,73.14
2019-03-29T11:05:30.063Z,72.37
2019-03-29T11:06:30.125Z,72.08
2019-03-29T11:07:30.184Z,71.67
2019-03-29T11:08:30.247Z,70.68
2019-03-29T11:09:30.310Z,71.80
2019-03-29T11:10:30.371Z,71.64
2019-03-29T11:11:30.451Z,71.51
2019-03-29T11:12:30.494Z,72.24
2019-03-29T11:13:30.561Z,72.72
2019-03-29T11:14:30.620Z,72.91
2019-03-29T11:15:30.683Z,72.95
2019-03-29T11:16:30.743Z,72.72
2019-03-29T11:17:30.806Z,72.33
2019-03-29T11:18:30.868Z,72.05
2019-03-29T11:19:30.929Z,71.70
2019-03-29T11:20:30.992Z,71.16
2019-03-29T11:21:31.055Z,69.75
2019-03-29T11:22:31.115Z,68.37
2019-03-29T11:23:31.194Z,69.30
2019-03-29T11:24:31.244Z,70.74
2019-03-29T11:25:31.303Z,70.93
2019-03-29T11:26:31.367Z,70.62
2019-03-29T11:27:31.428Z,68.44
2019-03-29T11:28:31.489Z,66.46
2019-03-29T11:29:31.554Z,65.53
2019-03-29T11:30:41.928Z,63.64
2019-03-29T11:31:31.677Z,63.18
2019-03-29T11:32:31.860Z,60.55
2019-03-29T11:33:31.802Z,59.06
2019-03-29T11:34:31.868Z,57.04
2019-03-29T11:35:31.932Z,58.01
2019-03-29T11:36:31.993Z,58.23
2019-03-29T11:37:32.059Z,58.49
2019-03-29T11:38:32.121Z,59.04
2019-03-29T11:39:32.186Z,58.91
2019-03-29T11:40:32.253Z,58.30
2019-03-29T11:41:32.316Z,58.82
2019-03-29T11:42:32.381Z,59.92
2019-03-29T11:43:32.448Z,61.81
2019-03-29T11:44:32.511Z,62.99
2019-03-29T11:45:32.575Z,62.80
2019-03-29T11:46:32.639Z,62.87
2019-03-29T11:47:32.703Z,63.41
2019-03-29T11:48:32.767Z,64.31
2019-03-29T11:49:32.832Z,65.27
2019-03-29T11:50:32.901Z,65.11
2019-03-29T11:51:32.960Z,65.01
2019-03-29T11:52:33.904Z,63.38
2019-03-29T11:53:33.089Z,61.10
2019-03-29T11:54:33.149Z,61.81
2019-03-29T11:55:33.213Z,62.93
2019-03-29T11:56:33.518Z,63.45
2019-03-29T11:57:33.340Z,61.84
2019-03-29T11:58:33.401Z,61.29
2019-03-29T11:59:33.464Z,60.55
2019-03-29T12:00:34.147Z,59.17
2019-03-29T12:01:33.588Z,57.07
2019-03-29T12:02:33.651Z,56.33
2019-03-29T12:03:33.715Z,54.43
2019-03-29T12:04:33.780Z,54.79
2019-03-29T12:05:36.229Z,55.27
2019-03-29T12:06:33.906Z,53.95
2019-03-29T12:07:33.968Z,53.39
2019-03-29T12:08:34.031Z,52.36
2019-03-29T12:09:34.095Z,52.26
2019-03-29T12:10:34.159Z,51.15
2019-03-29T12:11:34.222Z,50.81
2019-03-29T12:12:34.288Z,52.14
2019-03-29T12:13:40.861Z,53.09
2019-03-29T12:14:34.417Z,56.03
2019-03-29T12:15:34.480Z,58.37
2019-03-29T12:16:34.545Z,56.85
2019-03-29T12:17:34.610Z,57.02
2019-03-29T12:18:34.675Z,58.24
2019-03-29T12:19:34.738Z,57.43
2019-03-29T12:20:34.802Z,55.44
2019-03-29T12:21:34.866Z,55.48
2019-03-29T12:22:34.931Z,57.83
2019-03-29T12:23:34.996Z,59.22
2019-03-29T12:24:35.059Z,60.46
2019-03-29T12:25:35.124Z,60.56
2019-03-29T12:26:35.187Z,60.46
2019-03-29T12:27:35.453Z,61.23
2019-03-29T12:28:35.315Z,61.81
2019-03-29T12:29:35.380Z,61.94
2019-03-29T12:30:35.441Z,60.39
2019-03-29T12:31:35.506Z,59.78
2019-03-29T12:32:35.568Z,57.92
2019-03-29T12:33:35.643Z,55.92
2019-03-29T12:34:35.696Z,55.63
2019-03-29T12:35:35.762Z,56.01
2019-03-29T12:36:35.825Z,54.88
2019-03-29T12:37:35.885Z,54.96
2019-03-29T12:38:35.949Z,54.91
2019-03-29T12:39:36.012Z,53.03
2019-03-29T12:40:36.076Z,52.04
2019-03-29T12:41:36.140Z,53.39
2019-03-29T12:42:36.207Z,54.60
2019-03-29T12:43:36.268Z,53.75
2019-03-29T12:44:36.338Z,53.08
2019-03-29T12:45:36.396Z,53.77
2019-03-29T12:46:36.463Z,53.85
2019-03-29T12:47:36.554Z,52.59
2019-03-29T12:48:36.592Z,53.11
2019-03-29T12:49:36.658Z,53.34
2019-03-29T12:50:36.728Z,53.80
2019-03-29T12:51:36.787Z,53.56
2019-03-29T12:52:36.853Z,53.70
2019-03-29T12:53:36.919Z,55.96
2019-03-29T12:54:36.985Z,57.67
2019-03-29T12:55:37.050Z,57.53